sensor_id;sensor_type;location;lat;lon;timestamp;temperature;humidity
41178;DHT22;26912;54.292;18.574;2022-12-18T00:01:21;12.90;39.20
41178;DHT22;26912;54.292;18.574;2022-12-18T00:03:50;12.80;38.90
41178;DHT22;26912;54.292;18.574;2022-12-18T00:06:17;12.90;39.00
41178;DHT22;26912;54.292;18.574;2022-12-18T00:08:45;13.00;38.90
41178;DHT22;26912;54.292;18.574;2022-12-18T00:11:21;13.10;38.60
41178;DHT22;26912;54.292;18.574;2022-12-18T00:13:47;12.80;38.60
41178;DHT22;26912;54.292;18.574;2022-12-18T00:16:21;12.90;38.90
41178;DHT22;26912;54.292;18.574;2022-12-18T00:18:50;13.00;38.70
41178;DHT22;26912;54.292;18.574;2022-12-18T00:21:18;12.60;38.70
41178;DHT22;26912;54.292;18.574;2022-12-18T00:23:46;12.40;39.20
41178;DHT22;26912;54.292;18.574;2022-12-18T00:26:16;12.50;39.60
41178;DHT22;26912;54.292;18.574;2022-12-18T00:28:44;12.50;39.50
41178;DHT22;26912;54.292;18.574;2022-12-18T00:31:13;12.30;39.50
41178;DHT22;26912;54.292;18.574;2022-12-18T00:33:40;12.40;39.60
41178;DHT22;26912;54.292;18.574;2022-12-18T00:36:12;12.60;39.40
41178;DHT22;26912;54.292;18.574;2022-12-18T00:38:39;12.60;39.20
41178;DHT22;26912;54.292;18.574;2022-12-18T00:41:07;12.50;39.00
41178;DHT22;26912;54.292;18.574;2022-12-18T00:43:37;12.00;39.40
41178;DHT22;26912;54.292;18.574;2022-12-18T00:46:04;11.10;40.80
41178;DHT22;26912;54.292;18.574;2022-12-18T00:48:32;10.60;42.10
41178;DHT22;26912;54.292;18.574;2022-12-18T00:50:59;10.60;42.50
41178;DHT22;26912;54.292;18.574;2022-12-18T00:53:25;10.60;42.90
41178;DHT22;26912;54.292;18.574;2022-12-18T00:55:52;10.60;42.90
41178;DHT22;26912;54.292;18.574;2022-12-18T00:58:18;10.80;42.90
41178;DHT22;26912;54.292;18.574;2022-12-18T01:00:45;10.90;42.50
41178;DHT22;26912;54.292;18.574;2022-12-18T01:03:15;10.70;42.70
41178;DHT22;26912;54.292;18.574;2022-12-18T01:05:43;10.50;43.20
41178;DHT22;26912;54.292;18.574;2022-12-18T01:08:11;10.40;43.90
41178;DHT22;26912;54.292;18.574;2022-12-18T01:10:40;10.40;43.90
41178;DHT22;26912;54.292;18.574;2022-12-18T01:13:07;10.40;44.00
41178;DHT22;26912;54.292;18.574;2022-12-18T01:15:34;10.80;43.80
41178;DHT22;26912;54.292;18.574;2022-12-18T01:18:00;10.70;43.50
41178;DHT22;26912;54.292;18.574;2022-12-18T01:20:27;10.90;43.80
41178;DHT22;26912;54.292;18.574;2022-12-18T01:22:54;10.70;44.20
41178;DHT22;26912;54.292;18.574;2022-12-18T01:25:23;11.20;44.00
41178;DHT22;26912;54.292;18.574;2022-12-18T01:27:50;11.40;43.30
41178;DHT22;26912;54.292;18.574;2022-12-18T01:30:17;11.70;43.10
41178;DHT22;26912;54.292;18.574;2022-12-18T01:32:45;11.40;43.00
41178;DHT22;26912;54.292;18.574;2022-12-18T01:35:11;11.40;43.50
41178;DHT22;26912;54.292;18.574;2022-12-18T01:37:38;11.70;43.70
41178;DHT22;26912;54.292;18.574;2022-12-18T01:40:05;12.10;42.80
41178;DHT22;26912;54.292;18.574;2022-12-18T01:42:32;12.00;42.50
41178;DHT22;26912;54.292;18.574;2022-12-18T01:50:24;11.60;43.70
41178;DHT22;26912;54.292;18.574;2022-12-18T01:53:14;11.60;43.80
41178;DHT22;26912;54.292;18.574;2022-12-18T01:56:12;11.70;43.80
41178;DHT22;26912;54.292;18.574;2022-12-18T01:59:00;11.20;44.10
41178;DHT22;26912;54.292;18.574;2022-12-18T02:01:29;11.40;44.70
41178;DHT22;26912;54.292;18.574;2022-12-18T02:04:23;11.80;44.20
41178;DHT22;26912;54.292;18.574;2022-12-18T02:12:25;11.60;44.10
41178;DHT22;26912;54.292;18.574;2022-12-18T02:15:02;11.70;44.20
41178;DHT22;26912;54.292;18.574;2022-12-18T02:17:43;11.90;44.80
41178;DHT22;26912;54.292;18.574;2022-12-18T02:20:14;12.40;43.80
41178;DHT22;26912;54.292;18.574;2022-12-18T02:28:19;12.40;43.20
41178;DHT22;26912;54.292;18.574;2022-12-18T02:30:49;12.60;42.60
41178;DHT22;26912;54.292;18.574;2022-12-18T02:33:18;12.20;42.80
41178;DHT22;26912;54.292;18.574;2022-12-18T02:35:45;11.90;43.30
41178;DHT22;26912;54.292;18.574;2022-12-18T02:38:14;11.70;43.80
41178;DHT22;26912;54.292;18.574;2022-12-18T02:40:44;11.50;44.00
41178;DHT22;26912;54.292;18.574;2022-12-18T02:43:16;11.50;44.70
41178;DHT22;26912;54.292;18.574;2022-12-18T02:45:52;11.70;44.50
41178;DHT22;26912;54.292;18.574;2022-12-18T02:48:24;11.60;44.00
41178;DHT22;26912;54.292;18.574;2022-12-18T02:51:07;11.70;43.80
41178;DHT22;26912;54.292;18.574;2022-12-18T02:56:42;11.60;43.40
41178;DHT22;26912;54.292;18.574;2022-12-18T02:59:33;11.10;44.10
41178;DHT22;26912;54.292;18.574;2022-12-18T03:02:24;11.10;44.60
41178;DHT22;26912;54.292;18.574;2022-12-18T03:05:10;11.30;44.20
41178;DHT22;26912;54.292;18.574;2022-12-18T03:07:44;11.50;44.10
41178;DHT22;26912;54.292;18.574;2022-12-18T03:10:18;11.30;43.90
41178;DHT22;26912;54.292;18.574;2022-12-18T03:12:54;11.30;44.30
41178;DHT22;26912;54.292;18.574;2022-12-18T03:15:31;11.70;44.20
41178;DHT22;26912;54.292;18.574;2022-12-18T03:18:26;11.90;43.60
41178;DHT22;26912;54.292;18.574;2022-12-18T03:20:58;11.80;42.70
41178;DHT22;26912;54.292;18.574;2022-12-18T03:23:29;11.60;42.50
41178;DHT22;26912;54.292;18.574;2022-12-18T03:26:02;11.40;43.30
41178;DHT22;26912;54.292;18.574;2022-12-18T03:28:33;11.40;43.40
41178;DHT22;26912;54.292;18.574;2022-12-18T03:31:05;11.10;43.90
41178;DHT22;26912;54.292;18.574;2022-12-18T03:33:43;11.30;43.70
41178;DHT22;26912;54.292;18.574;2022-12-18T03:36:14;11.40;43.60
41178;DHT22;26912;54.292;18.574;2022-12-18T03:38:41;11.70;43.80
41178;DHT22;26912;54.292;18.574;2022-12-18T03:41:33;11.70;42.70
41178;DHT22;26912;54.292;18.574;2022-12-18T03:47:27;11.10;43.60
41178;DHT22;26912;54.292;18.574;2022-12-18T03:52:49;11.40;42.70
41178;DHT22;26912;54.292;18.574;2022-12-18T03:55:18;11.30;43.00
41178;DHT22;26912;54.292;18.574;2022-12-18T03:57:49;10.70;43.50
41178;DHT22;26912;54.292;18.574;2022-12-18T04:00:18;10.80;43.90
41178;DHT22;26912;54.292;18.574;2022-12-18T04:02:56;10.80;43.90
41178;DHT22;26912;54.292;18.574;2022-12-18T04:05:32;10.90;43.90
41178;DHT22;26912;54.292;18.574;2022-12-18T04:08:01;10.50;44.50
41178;DHT22;26912;54.292;18.574;2022-12-18T04:10:28;10.60;44.20
41178;DHT22;26912;54.292;18.574;2022-12-18T04:12:58;10.60;44.50
41178;DHT22;26912;54.292;18.574;2022-12-18T04:15:25;10.20;45.00
41178;DHT22;26912;54.292;18.574;2022-12-18T04:17:52;10.30;44.90
41178;DHT22;26912;54.292;18.574;2022-12-18T04:20:22;10.20;44.90
41178;DHT22;26912;54.292;18.574;2022-12-18T04:22:49;10.20;45.00
41178;DHT22;26912;54.292;18.574;2022-12-18T04:25:17;9.90;45.50
41178;DHT22;26912;54.292;18.574;2022-12-18T04:27:55;10.30;45.50
41178;DHT22;26912;54.292;18.574;2022-12-18T04:30:22;10.70;44.70
41178;DHT22;26912;54.292;18.574;2022-12-18T04:32:49;10.80;43.80
41178;DHT22;26912;54.292;18.574;2022-12-18T04:35:16;11.10;43.50
41178;DHT22;26912;54.292;18.574;2022-12-18T04:37:44;11.10;43.20
41178;DHT22;26912;54.292;18.574;2022-12-18T04:40:11;10.60;43.00
41178;DHT22;26912;54.292;18.574;2022-12-18T04:42:42;10.70;43.90
41178;DHT22;26912;54.292;18.574;2022-12-18T04:45:08;10.70;43.70
41178;DHT22;26912;54.292;18.574;2022-12-18T04:47:35;10.90;43.70
41178;DHT22;26912;54.292;18.574;2022-12-18T04:50:02;11.20;42.70
41178;DHT22;26912;54.292;18.574;2022-12-18T04:52:29;11.00;42.90
41178;DHT22;26912;54.292;18.574;2022-12-18T04:54:56;10.80;43.30
41178;DHT22;26912;54.292;18.574;2022-12-18T04:57:22;11.40;43.10
41178;DHT22;26912;54.292;18.574;2022-12-18T04:59:49;11.20;42.30
41178;DHT22;26912;54.292;18.574;2022-12-18T05:02:15;11.20;42.30
41178;DHT22;26912;54.292;18.574;2022-12-18T05:04:42;11.20;42.60
41178;DHT22;26912;54.292;18.574;2022-12-18T05:07:08;10.90;42.50
41178;DHT22;26912;54.292;18.574;2022-12-18T05:09:35;10.90;42.70
41178;DHT22;26912;54.292;18.574;2022-12-18T05:12:02;11.30;42.60
41178;DHT22;26912;54.292;18.574;2022-12-18T05:14:28;11.50;42.20
41178;DHT22;26912;54.292;18.574;2022-12-18T05:16:55;11.50;42.00
41178;DHT22;26912;54.292;18.574;2022-12-18T05:19:22;11.40;41.70
41178;DHT22;26912;54.292;18.574;2022-12-18T05:21:48;11.20;42.00
41178;DHT22;26912;54.292;18.574;2022-12-18T05:24:15;11.00;42.00
41178;DHT22;26912;54.292;18.574;2022-12-18T05:26:42;11.00;42.30
41178;DHT22;26912;54.292;18.574;2022-12-18T05:29:08;10.30;43.10
41178;DHT22;26912;54.292;18.574;2022-12-18T05:31:38;10.40;44.40
41178;DHT22;26912;54.292;18.574;2022-12-18T05:34:05;10.80;43.90
41178;DHT22;26912;54.292;18.574;2022-12-18T05:36:32;10.50;43.30
41178;DHT22;26912;54.292;18.574;2022-12-18T05:38:58;10.50;43.50
41178;DHT22;26912;54.292;18.574;2022-12-18T05:41:26;10.60;43.70
41178;DHT22;26912;54.292;18.574;2022-12-18T05:43:53;11.00;43.50
41178;DHT22;26912;54.292;18.574;2022-12-18T05:46:20;10.80;43.10
41178;DHT22;26912;54.292;18.574;2022-12-18T05:48:46;10.60;44.10
41178;DHT22;26912;54.292;18.574;2022-12-18T05:51:16;10.80;43.40
41178;DHT22;26912;54.292;18.574;2022-12-18T05:53:43;11.10;43.00
41178;DHT22;26912;54.292;18.574;2022-12-18T05:56:13;11.40;42.40
41178;DHT22;26912;54.292;18.574;2022-12-18T05:58:41;11.20;42.10
41178;DHT22;26912;54.292;18.574;2022-12-18T06:01:11;11.20;42.20
41178;DHT22;26912;54.292;18.574;2022-12-18T06:03:38;10.70;42.80
41178;DHT22;26912;54.292;18.574;2022-12-18T06:06:16;11.00;42.50
41178;DHT22;26912;54.292;18.574;2022-12-18T06:08:43;11.10;42.50
41178;DHT22;26912;54.292;18.574;2022-12-18T06:11:10;11.00;42.10
41178;DHT22;26912;54.292;18.574;2022-12-18T06:13:37;11.00;42.20
41178;DHT22;26912;54.292;18.574;2022-12-18T06:16:05;11.00;42.50
41178;DHT22;26912;54.292;18.574;2022-12-18T06:18:32;10.60;42.40
41178;DHT22;26912;54.292;18.574;2022-12-18T06:21:00;10.60;42.90
41178;DHT22;26912;54.292;18.574;2022-12-18T06:23:26;10.70;42.70
41178;DHT22;26912;54.292;18.574;2022-12-18T06:25:53;10.40;43.00
41178;DHT22;26912;54.292;18.574;2022-12-18T06:28:20;10.50;43.20
41178;DHT22;26912;54.292;18.574;2022-12-18T06:30:48;10.50;43.20
41178;DHT22;26912;54.292;18.574;2022-12-18T06:33:15;10.50;43.10
41178;DHT22;26912;54.292;18.574;2022-12-18T06:35:42;10.90;43.30
41178;DHT22;26912;54.292;18.574;2022-12-18T06:38:09;11.30;41.80
41178;DHT22;26912;54.292;18.574;2022-12-18T06:40:37;11.40;42.00
41178;DHT22;26912;54.292;18.574;2022-12-18T06:43:05;11.50;41.60
41178;DHT22;26912;54.292;18.574;2022-12-18T06:45:32;11.80;40.90
41178;DHT22;26912;54.292;18.574;2022-12-18T06:47:58;11.70;40.40
41178;DHT22;26912;54.292;18.574;2022-12-18T06:50:25;11.80;40.40
41178;DHT22;26912;54.292;18.574;2022-12-18T06:52:51;12.10;40.20
41178;DHT22;26912;54.292;18.574;2022-12-18T06:55:18;12.30;39.80
41178;DHT22;26912;54.292;18.574;2022-12-18T06:57:44;12.40;39.20
41178;DHT22;26912;54.292;18.574;2022-12-18T07:00:11;12.30;39.20
41178;DHT22;26912;54.292;18.574;2022-12-18T07:02:38;12.60;39.10
41178;DHT22;26912;54.292;18.574;2022-12-18T07:05:05;12.50;39.20
41178;DHT22;26912;54.292;18.574;2022-12-18T07:07:33;12.40;38.60
41178;DHT22;26912;54.292;18.574;2022-12-18T07:10:00;12.50;39.00
41178;DHT22;26912;54.292;18.574;2022-12-18T07:12:27;12.80;38.70
41178;DHT22;26912;54.292;18.574;2022-12-18T07:14:55;13.00;38.20
41178;DHT22;26912;54.292;18.574;2022-12-18T07:17:21;13.00;37.80
41178;DHT22;26912;54.292;18.574;2022-12-18T07:19:48;13.10;37.70
41178;DHT22;26912;54.292;18.574;2022-12-18T07:22:14;13.20;37.50
41178;DHT22;26912;54.292;18.574;2022-12-18T07:24:41;13.40;37.20
41178;DHT22;26912;54.292;18.574;2022-12-18T07:27:08;13.40;37.20
41178;DHT22;26912;54.292;18.574;2022-12-18T07:29:36;13.50;36.90
41178;DHT22;26912;54.292;18.574;2022-12-18T07:32:02;13.70;36.80
41178;DHT22;26912;54.292;18.574;2022-12-18T07:34:29;13.60;36.50
41178;DHT22;26912;54.292;18.574;2022-12-18T07:36:55;13.10;36.50
41178;DHT22;26912;54.292;18.574;2022-12-18T07:39:22;12.80;37.20
41178;DHT22;26912;54.292;18.574;2022-12-18T07:41:49;12.90;37.30
41178;DHT22;26912;54.292;18.574;2022-12-18T07:44:36;12.80;37.30
41178;DHT22;26912;54.292;18.574;2022-12-18T07:47:03;12.50;37.50
41178;DHT22;26912;54.292;18.574;2022-12-18T07:49:30;12.40;37.80
41178;DHT22;26912;54.292;18.574;2022-12-18T07:51:57;12.70;38.10
41178;DHT22;26912;54.292;18.574;2022-12-18T07:54:24;12.50;37.90
41178;DHT22;26912;54.292;18.574;2022-12-18T07:56:51;12.30;38.90
41178;DHT22;26912;54.292;18.574;2022-12-18T07:59:18;12.00;38.90
41178;DHT22;26912;54.292;18.574;2022-12-18T08:01:44;12.10;39.00
41178;DHT22;26912;54.292;18.574;2022-12-18T08:04:11;12.30;39.10
41178;DHT22;26912;54.292;18.574;2022-12-18T08:06:37;12.60;38.70
41178;DHT22;26912;54.292;18.574;2022-12-18T08:09:04;12.60;38.50
41178;DHT22;26912;54.292;18.574;2022-12-18T08:11:31;12.90;38.40
41178;DHT22;26912;54.292;18.574;2022-12-18T08:13:58;12.50;38.00
41178;DHT22;26912;54.292;18.574;2022-12-18T08:16:24;12.30;38.60
41178;DHT22;26912;54.292;18.574;2022-12-18T08:18:52;12.30;38.70
41178;DHT22;26912;54.292;18.574;2022-12-18T08:21:25;12.20;39.00
41178;DHT22;26912;54.292;18.574;2022-12-18T08:23:53;12.30;39.20
41178;DHT22;26912;54.292;18.574;2022-12-18T08:26:21;12.40;38.70
41178;DHT22;26912;54.292;18.574;2022-12-18T08:28:48;11.70;39.20
41178;DHT22;26912;54.292;18.574;2022-12-18T08:31:15;11.70;39.90
41178;DHT22;26912;54.292;18.574;2022-12-18T08:33:42;12.10;39.60
41178;DHT22;26912;54.292;18.574;2022-12-18T08:36:09;12.10;39.00
41178;DHT22;26912;54.292;18.574;2022-12-18T08:38:36;12.00;39.10
41178;DHT22;26912;54.292;18.574;2022-12-18T08:41:09;12.00;39.00
41178;DHT22;26912;54.292;18.574;2022-12-18T08:43:36;12.00;38.90
41178;DHT22;26912;54.292;18.574;2022-12-18T08:46:23;11.80;39.00
41178;DHT22;26912;54.292;18.574;2022-12-18T08:48:51;11.60;39.10
41178;DHT22;26912;54.292;18.574;2022-12-18T08:51:18;11.60;39.60
41178;DHT22;26912;54.292;18.574;2022-12-18T08:53:45;11.60;39.60
41178;DHT22;26912;54.292;18.574;2022-12-18T08:56:14;11.80;39.70
41178;DHT22;26912;54.292;18.574;2022-12-18T08:58:41;12.30;39.50
41178;DHT22;26912;54.292;18.574;2022-12-18T09:01:12;12.30;38.50
41178;DHT22;26912;54.292;18.574;2022-12-18T09:03:40;12.40;38.40
41178;DHT22;26912;54.292;18.574;2022-12-18T09:06:07;12.20;37.90
41178;DHT22;26912;54.292;18.574;2022-12-18T09:08:36;11.70;38.40
41178;DHT22;26912;54.292;18.574;2022-12-18T09:11:04;11.70;39.00
41178;DHT22;26912;54.292;18.574;2022-12-18T09:13:32;11.60;38.60
41178;DHT22;26912;54.292;18.574;2022-12-18T09:15:58;11.70;39.40
41178;DHT22;26912;54.292;18.574;2022-12-18T09:18:25;12.10;38.80
41178;DHT22;26912;54.292;18.574;2022-12-18T09:20:52;12.00;39.00
41178;DHT22;26912;54.292;18.574;2022-12-18T09:23:20;11.80;38.40
41178;DHT22;26912;54.292;18.574;2022-12-18T09:25:47;12.00;38.90
41178;DHT22;26912;54.292;18.574;2022-12-18T09:28:18;12.00;38.80
41178;DHT22;26912;54.292;18.574;2022-12-18T09:30:49;12.20;38.70
41178;DHT22;26912;54.292;18.574;2022-12-18T09:33:18;12.40;37.50
41178;DHT22;26912;54.292;18.574;2022-12-18T09:35:46;12.10;37.70
41178;DHT22;26912;54.292;18.574;2022-12-18T09:38:16;12.50;37.90
41178;DHT22;26912;54.292;18.574;2022-12-18T09:40:54;13.10;37.60
41178;DHT22;26912;54.292;18.574;2022-12-18T09:43:33;12.90;36.40
41178;DHT22;26912;54.292;18.574;2022-12-18T09:46:08;12.60;36.70
41178;DHT22;26912;54.292;18.574;2022-12-18T09:48:41;12.70;36.70
41178;DHT22;26912;54.292;18.574;2022-12-18T09:51:19;12.50;36.40
41178;DHT22;26912;54.292;18.574;2022-12-18T09:54:01;12.70;36.50
41178;DHT22;26912;54.292;18.574;2022-12-18T09:56:35;12.00;36.50
41178;DHT22;26912;54.292;18.574;2022-12-18T09:59:04;11.80;37.10
41178;DHT22;26912;54.292;18.574;2022-12-18T10:01:34;11.20;37.30
41178;DHT22;26912;54.292;18.574;2022-12-18T10:04:02;10.80;38.40
41178;DHT22;26912;54.292;18.574;2022-12-18T10:10:00;11.00;39.10
41178;DHT22;26912;54.292;18.574;2022-12-18T10:12:30;10.90;38.60
41178;DHT22;26912;54.292;18.574;2022-12-18T10:21:09;10.80;38.50
41178;DHT22;26912;54.292;18.574;2022-12-18T10:23:54;10.70;38.40
41178;DHT22;26912;54.292;18.574;2022-12-18T10:26:27;11.00;39.60
41178;DHT22;26912;54.292;18.574;2022-12-18T10:28:53;11.40;38.70
41178;DHT22;26912;54.292;18.574;2022-12-18T10:31:23;11.80;37.80
41178;DHT22;26912;54.292;18.574;2022-12-18T10:33:55;12.10;37.30
41178;DHT22;26912;54.292;18.574;2022-12-18T10:36:27;12.30;36.20
41178;DHT22;26912;54.292;18.574;2022-12-18T10:39:15;12.00;36.20
41178;DHT22;26912;54.292;18.574;2022-12-18T10:41:44;11.60;36.30
41178;DHT22;26912;54.292;18.574;2022-12-18T10:44:21;11.40;37.20
41178;DHT22;26912;54.292;18.574;2022-12-18T10:47:03;11.20;37.40
41178;DHT22;26912;54.292;18.574;2022-12-18T10:49:32;11.10;38.00
41178;DHT22;26912;54.292;18.574;2022-12-18T10:52:14;11.20;37.80
41178;DHT22;26912;54.292;18.574;2022-12-18T10:54:48;11.20;37.60
41178;DHT22;26912;54.292;18.574;2022-12-18T10:57:33;10.40;38.20
41178;DHT22;26912;54.292;18.574;2022-12-18T11:00:21;10.00;39.10
41178;DHT22;26912;54.292;18.574;2022-12-18T11:02:50;10.70;38.90
41178;DHT22;26912;54.292;18.574;2022-12-18T11:05:32;11.00;38.60
41178;DHT22;26912;54.292;18.574;2022-12-18T11:08:20;11.50;38.00
41178;DHT22;26912;54.292;18.574;2022-12-18T11:10:49;11.70;37.20
41178;DHT22;26912;54.292;18.574;2022-12-18T11:13:25;11.60;36.90
41178;DHT22;26912;54.292;18.574;2022-12-18T11:15:52;11.30;37.30
41178;DHT22;26912;54.292;18.574;2022-12-18T11:18:26;11.40;37.50
41178;DHT22;26912;54.292;18.574;2022-12-18T11:21:05;10.90;38.20
41178;DHT22;26912;54.292;18.574;2022-12-18T11:23:33;11.10;38.20
41178;DHT22;26912;54.292;18.574;2022-12-18T11:26:04;11.00;38.20
41178;DHT22;26912;54.292;18.574;2022-12-18T11:28:50;11.30;38.20
41178;DHT22;26912;54.292;18.574;2022-12-18T11:36:50;11.90;37.60
41178;DHT22;26912;54.292;18.574;2022-12-18T11:42:21;11.60;37.60
41178;DHT22;26912;54.292;18.574;2022-12-18T11:53:12;12.10;37.50
41178;DHT22;26912;54.292;18.574;2022-12-18T11:58:47;12.10;36.50
41178;DHT22;26912;54.292;18.574;2022-12-18T12:16:08;11.10;38.30
41178;DHT22;26912;54.292;18.574;2022-12-18T12:18:59;11.10;38.30
41178;DHT22;26912;54.292;18.574;2022-12-18T12:21:42;11.70;38.50
41178;DHT22;26912;54.292;18.574;2022-12-18T12:24:25;13.00;37.30
41178;DHT22;26912;54.292;18.574;2022-12-18T12:27:05;14.20;34.40
41178;DHT22;26912;54.292;18.574;2022-12-18T12:35:50;14.90;33.30
41178;DHT22;26912;54.292;18.574;2022-12-18T12:38:28;14.80;32.00
41178;DHT22;26912;54.292;18.574;2022-12-18T12:41:07;14.50;32.20
41178;DHT22;26912;54.292;18.574;2022-12-18T12:43:58;15.00;31.90
41178;DHT22;26912;54.292;18.574;2022-12-18T12:46:31;14.40;31.30
41178;DHT22;26912;54.292;18.574;2022-12-18T12:49:02;13.20;32.80
41178;DHT22;26912;54.292;18.574;2022-12-18T12:51:36;12.90;34.30
41178;DHT22;26912;54.292;18.574;2022-12-18T12:54:11;12.10;35.40
41178;DHT22;26912;54.292;18.574;2022-12-18T13:04:56;11.80;37.60
41178;DHT22;26912;54.292;18.574;2022-12-18T13:07:35;11.90;37.70
41178;DHT22;26912;54.292;18.574;2022-12-18T13:18:18;12.90;37.40
41178;DHT22;26912;54.292;18.574;2022-12-18T13:21:02;13.20;36.90
41178;DHT22;26912;54.292;18.574;2022-12-18T13:23:32;13.70;36.60
41178;DHT22;26912;54.292;18.574;2022-12-18T13:34:18;13.90;34.70
41178;DHT22;26912;54.292;18.574;2022-12-18T13:36:46;13.80;34.70
41178;DHT22;26912;54.292;18.574;2022-12-18T13:39:21;13.30;35.30
41178;DHT22;26912;54.292;18.574;2022-12-18T13:44:58;12.10;37.20
41178;DHT22;26912;54.292;18.574;2022-12-18T13:47:35;11.70;38.10
41178;DHT22;26912;54.292;18.574;2022-12-18T13:50:22;11.80;38.20
41178;DHT22;26912;54.292;18.574;2022-12-18T13:52:53;11.60;38.30
41178;DHT22;26912;54.292;18.574;2022-12-18T13:55:22;11.70;38.40
41178;DHT22;26912;54.292;18.574;2022-12-18T13:57:49;11.60;38.80
41178;DHT22;26912;54.292;18.574;2022-12-18T14:02:49;12.00;38.30
41178;DHT22;26912;54.292;18.574;2022-12-18T14:07:53;11.90;37.70
41178;DHT22;26912;54.292;18.574;2022-12-18T14:10:21;12.10;38.10
41178;DHT22;26912;54.292;18.574;2022-12-18T14:12:50;11.90;37.70
41178;DHT22;26912;54.292;18.574;2022-12-18T14:17:58;12.30;37.70
41178;DHT22;26912;54.292;18.574;2022-12-18T14:20:27;12.70;37.60
41178;DHT22;26912;54.292;18.574;2022-12-18T14:22:58;13.30;36.90
41178;DHT22;26912;54.292;18.574;2022-12-18T14:25:30;13.70;36.80
41178;DHT22;26912;54.292;18.574;2022-12-18T14:28:13;13.80;35.80
41178;DHT22;26912;54.292;18.574;2022-12-18T14:30:43;13.70;34.90
41178;DHT22;26912;54.292;18.574;2022-12-18T14:35:58;13.50;35.00
41178;DHT22;26912;54.292;18.574;2022-12-18T14:38:38;13.50;34.90
41178;DHT22;26912;54.292;18.574;2022-12-18T14:41:11;13.50;34.60
41178;DHT22;26912;54.292;18.574;2022-12-18T14:43:42;13.60;34.80
41178;DHT22;26912;54.292;18.574;2022-12-18T14:46:48;13.40;34.50
41178;DHT22;26912;54.292;18.574;2022-12-18T14:49:33;13.50;34.80
41178;DHT22;26912;54.292;18.574;2022-12-18T14:52:05;13.50;34.30
41178;DHT22;26912;54.292;18.574;2022-12-18T14:54:34;13.30;34.40
41178;DHT22;26912;54.292;18.574;2022-12-18T14:57:25;13.10;34.80
41178;DHT22;26912;54.292;18.574;2022-12-18T15:00:04;13.10;34.60
41178;DHT22;26912;54.292;18.574;2022-12-18T15:02:35;12.70;34.90
41178;DHT22;26912;54.292;18.574;2022-12-18T15:05:27;12.80;35.40
41178;DHT22;26912;54.292;18.574;2022-12-18T15:07:58;12.90;35.10
41178;DHT22;26912;54.292;18.574;2022-12-18T15:10:30;12.60;34.90
41178;DHT22;26912;54.292;18.574;2022-12-18T15:20:54;12.50;35.70
41178;DHT22;26912;54.292;18.574;2022-12-18T15:23:31;12.80;35.50
41178;DHT22;26912;54.292;18.574;2022-12-18T15:26:08;12.80;34.90
41178;DHT22;26912;54.292;18.574;2022-12-18T15:33:43;12.80;34.50
41178;DHT22;26912;54.292;18.574;2022-12-18T15:36:22;12.40;34.40
41178;DHT22;26912;54.292;18.574;2022-12-18T15:38:50;11.90;35.10
41178;DHT22;26912;54.292;18.574;2022-12-18T15:41:22;11.90;35.60
41178;DHT22;26912;54.292;18.574;2022-12-18T15:43:53;11.90;35.60
41178;DHT22;26912;54.292;18.574;2022-12-18T15:46:24;11.80;35.40
41178;DHT22;26912;54.292;18.574;2022-12-18T15:48:56;11.90;35.70
41178;DHT22;26912;54.292;18.574;2022-12-18T15:51:36;12.20;35.60
41178;DHT22;26912;54.292;18.574;2022-12-18T15:54:16;12.30;35.00
41178;DHT22;26912;54.292;18.574;2022-12-18T15:56:46;12.30;35.00
41178;DHT22;26912;54.292;18.574;2022-12-18T15:59:39;12.40;34.80
41178;DHT22;26912;54.292;18.574;2022-12-18T16:02:16;12.50;34.70
41178;DHT22;26912;54.292;18.574;2022-12-18T16:04:54;12.40;34.30
41178;DHT22;26912;54.292;18.574;2022-12-18T16:07:25;12.20;34.60
41178;DHT22;26912;54.292;18.574;2022-12-18T16:10:09;12.00;34.80
41178;DHT22;26912;54.292;18.574;2022-12-18T16:12:36;11.90;35.10
41178;DHT22;26912;54.292;18.574;2022-12-18T16:15:06;12.00;35.00
41178;DHT22;26912;54.292;18.574;2022-12-18T16:17:37;11.40;35.00
41178;DHT22;26912;54.292;18.574;2022-12-18T16:20:05;10.80;36.10
41178;DHT22;26912;54.292;18.574;2022-12-18T16:22:33;10.60;36.60
41178;DHT22;26912;54.292;18.574;2022-12-18T16:25:02;10.50;36.80
41178;DHT22;26912;54.292;18.574;2022-12-18T16:27:31;10.30;37.20
41178;DHT22;26912;54.292;18.574;2022-12-18T16:30:03;9.80;37.80
41178;DHT22;26912;54.292;18.574;2022-12-18T16:32:35;9.40;38.10
41178;DHT22;26912;54.292;18.574;2022-12-18T16:35:04;9.50;38.70
41178;DHT22;26912;54.292;18.574;2022-12-18T16:37:33;9.50;38.80
41178;DHT22;26912;54.292;18.574;2022-12-18T16:40:02;9.30;39.10
41178;DHT22;26912;54.292;18.574;2022-12-18T16:42:31;9.40;38.90
41178;DHT22;26912;54.292;18.574;2022-12-18T16:44:59;8.90;39.10
41178;DHT22;26912;54.292;18.574;2022-12-18T16:47:27;8.70;39.70
41178;DHT22;26912;54.292;18.574;2022-12-18T16:49:58;8.70;40.10
41178;DHT22;26912;54.292;18.574;2022-12-18T16:52:29;9.00;40.30
41178;DHT22;26912;54.292;18.574;2022-12-18T16:54:58;8.70;39.80
41178;DHT22;26912;54.292;18.574;2022-12-18T16:57:28;8.70;40.10
41178;DHT22;26912;54.292;18.574;2022-12-18T16:59:57;8.70;39.90
41178;DHT22;26912;54.292;18.574;2022-12-18T17:02:29;8.30;40.20
41178;DHT22;26912;54.292;18.574;2022-12-18T17:05:01;8.20;40.70
41178;DHT22;26912;54.292;18.574;2022-12-18T17:07:30;8.70;40.60
41178;DHT22;26912;54.292;18.574;2022-12-18T17:10:01;9.00;39.90
41178;DHT22;26912;54.292;18.574;2022-12-18T17:12:30;9.40;39.50
41178;DHT22;26912;54.292;18.574;2022-12-18T17:15:06;9.90;39.10
41178;DHT22;26912;54.292;18.574;2022-12-18T17:17:47;10.10;38.10
41178;DHT22;26912;54.292;18.574;2022-12-18T17:20:17;10.50;37.60
41178;DHT22;26912;54.292;18.574;2022-12-18T17:22:45;10.40;36.60
41178;DHT22;26912;54.292;18.574;2022-12-18T17:25:17;10.40;36.80
41178;DHT22;26912;54.292;18.574;2022-12-18T17:27:51;10.00;36.60
41178;DHT22;26912;54.292;18.574;2022-12-18T17:30:22;9.90;37.30
41178;DHT22;26912;54.292;18.574;2022-12-18T17:32:50;9.90;36.90
41178;DHT22;26912;54.292;18.574;2022-12-18T17:35:23;10.10;37.10
41178;DHT22;26912;54.292;18.574;2022-12-18T17:37:50;9.90;36.60
41178;DHT22;26912;54.292;18.574;2022-12-18T17:40:20;10.00;36.90
41178;DHT22;26912;54.292;18.574;2022-12-18T17:42:51;10.20;36.90
41178;DHT22;26912;54.292;18.574;2022-12-18T17:45:24;10.20;36.40
41178;DHT22;26912;54.292;18.574;2022-12-18T17:47:55;10.10;36.30
41178;DHT22;26912;54.292;18.574;2022-12-18T17:50:28;9.60;36.30